sensor_id;sensor_type;location;lat;lon;timestamp;pressure;altitude;pressure_sealevel;temperature;humidity
67840;BME280;54636;51.684;5.142;2023-04-16T00:02:09;102213.97;;;6.90;100.00
67840;BME280;54636;51.684;5.142;2023-04-16T00:04:34;102248.53;;;7.15;100.00
67840;BME280;54636;51.684;5.142;2023-04-16T00:07:00;102245.28;;;7.20;100.00
67840;BME280;54636;51.684;5.142;2023-04-16T00:09:25;102247.66;;;7.18;100.00
67840;BME280;54636;51.684;5.142;2023-04-16T00:11:50;102242.16;;;7.21;100.00
67840;BME280;54636;51.684;5.142;2023-04-16T00:14:16;102250.59;;;7.23;100.00
67840;BME280;54636;51.684;5.142;2023-04-16T00:16:41;102245.28;;;7.20;100.00
67840;BME280;54636;51.684;5.142;2023-04-16T00:19:07;102238.03;;;7.17;100.00
67840;BME280;54636;51.684;5.142;2023-04-16T00:21:32;102249.44;;;7.24;100.00
67840;BME280;54636;51.684;5.142;2023-04-16T00:23:57;102224.88;;;7.03;100.00
67840;BME280;54636;51.684;5.142;2023-04-16T00:26:23;102225.97;;;7.05;100.00
67840;BME280;54636;51.684;5.142;2023-04-16T00:28:48;102245.97;;;7.24;100.00
67840;BME280;54636;51.684;5.142;2023-04-16T00:31:13;102231.53;;;7.14;100.00
67840;BME280;54636;51.684;5.142;2023-04-16T00:33:39;102239.47;;;7.21;100.00
67840;BME280;54636;51.684;5.142;2023-04-16T00:36:05;102238.28;;;7.22;100.00
67840;BME280;54636;51.684;5.142;2023-04-16T00:38:30;102238.28;;;7.22;100.00
67840;BME280;54636;51.684;5.142;2023-04-16T00:40:57;102234.66;;;7.29;100.00
67840;BME280;54636;51.684;5.142;2023-04-16T00:43:26;102225.94;;;7.21;100.00
67840;BME280;54636;51.684;5.142;2023-04-16T00:45:52;102237.69;;;7.31;100.00
67840;BME280;54636;51.684;5.142;2023-04-16T00:48:20;102233.47;;;7.30;100.00
67840;BME280;54636;51.684;5.142;2023-04-16T00:50:46;102222.75;;;7.26;100.00
67840;BME280;54636;51.684;5.142;2023-04-16T00:53:13;102237.34;;;7.29;100.00
67840;BME280;54636;51.684;5.142;2023-04-16T00:55:38;102233.38;;;7.34;100.00
67840;BME280;54636;51.684;5.142;2023-04-16T00:58:05;102246.06;;;7.37;100.00
67840;BME280;54636;51.684;5.142;2023-04-16T01:00:30;102254.84;;;7.41;100.00
67840;BME280;54636;51.684;5.142;2023-04-16T01:02:55;102253.22;;;7.43;100.00
67840;BME280;54636;51.684;5.142;2023-04-16T01:05:21;102234.56;;;7.33;100.00
67840;BME280;54636;51.684;5.142;2023-04-16T01:07:49;102222.31;;;7.28;100.00
67840;BME280;54636;51.684;5.142;2023-04-16T01:10:15;102250.09;;;7.45;100.00
67840;BME280;54636;51.684;5.142;2023-04-16T01:12:40;102247.75;;;7.47;100.00
67840;BME280;54636;51.684;5.142;2023-04-16T01:15:06;102243.94;;;7.44;100.00
67840;BME280;54636;51.684;5.142;2023-04-16T01:17:31;102244.34;;;7.43;100.00
67840;BME280;54636;51.684;5.142;2023-04-16T01:19:58;102241.31;;;7.41;100.00
67840;BME280;54636;51.684;5.142;2023-04-16T01:22:24;102241.56;;;7.46;100.00
67840;BME280;54636;51.684;5.142;2023-04-16T01:24:49;102226.78;;;7.35;100.00
67840;BME280;54636;51.684;5.142;2023-04-16T01:27:15;102242.75;;;7.45;100.00
67840;BME280;54636;51.684;5.142;2023-04-16T01:29:40;102243.84;;;7.48;100.00
67840;BME280;54636;51.684;5.142;2023-04-16T01:32:06;102241.25;;;7.44;100.00
67840;BME280;54636;51.684;5.142;2023-04-16T01:34:31;102234.22;;;7.47;100.00
67840;BME280;54636;51.684;5.142;2023-04-16T01:36:57;102243.00;;;7.51;100.00
67840;BME280;54636;51.684;5.142;2023-04-16T01:39:22;102245.72;;;7.51;100.00
67840;BME280;54636;51.684;5.142;2023-04-16T01:41:47;102243.78;;;7.51;100.00
67840;BME280;54636;51.684;5.142;2023-04-16T01:44:13;102247.31;;;7.48;100.00
67840;BME280;54636;51.684;5.142;2023-04-16T01:46:38;102233.47;;;7.46;100.00
67840;BME280;54636;51.684;5.142;2023-04-16T01:49:04;102220.19;;;7.36;100.00
67840;BME280;54636;51.684;5.142;2023-04-16T01:51:31;102257.13;;;7.58;100.00
67840;BME280;54636;51.684;5.142;2023-04-16T01:53:57;102240.81;;;7.46;100.00
67840;BME280;54636;51.684;5.142;2023-04-16T01:56:22;102223.41;;;7.31;100.00
67840;BME280;54636;51.684;5.142;2023-04-16T01:58:48;102248.31;;;7.54;100.00
67840;BME280;54636;51.684;5.142;2023-04-16T02:01:13;102248.66;;;7.56;100.00
67840;BME280;54636;51.684;5.142;2023-04-16T02:03:39;102245.97;;;7.56;100.00
67840;BME280;54636;51.684;5.142;2023-04-16T02:06:04;102240.63;;;7.53;100.00
67840;BME280;54636;51.684;5.142;2023-04-16T02:08:30;102258.97;;;7.62;100.00
67840;BME280;54636;51.684;5.142;2023-04-16T02:10:56;102241.50;;;7.50;100.00
67840;BME280;54636;51.684;5.142;2023-04-16T02:13:22;102261.75;;;7.58;100.00
67840;BME280;54636;51.684;5.142;2023-04-16T02:15:49;102258.63;;;7.59;100.00
67840;BME280;54636;51.684;5.142;2023-04-16T02:18:15;102259.06;;;7.58;100.00
67840;BME280;54636;51.684;5.142;2023-04-16T02:20:45;102259.41;;;7.60;100.00
67840;BME280;54636;51.684;5.142;2023-04-16T02:23:12;102258.13;;;7.65;100.00
67840;BME280;54636;51.684;5.142;2023-04-16T02:25:43;102257.78;;;7.63;100.00
67840;BME280;54636;51.684;5.142;2023-04-16T02:28:10;102256.25;;;7.62;100.00
67840;BME280;54636;51.684;5.142;2023-04-16T02:30:36;102258.88;;;7.65;100.00
67840;BME280;54636;51.684;5.142;2023-04-16T02:33:03;102240.13;;;7.58;100.00
67840;BME280;54636;51.684;5.142;2023-04-16T02:35:36;102253.38;;;7.69;100.00
67840;BME280;54636;51.684;5.142;2023-04-16T02:38:02;102220.78;;;7.43;100.00
67840;BME280;54636;51.684;5.142;2023-04-16T02:40:28;102218.19;;;7.40;100.00
67840;BME280;54636;51.684;5.142;2023-04-16T02:42:53;102257.69;;;7.66;100.00
67840;BME280;54636;51.684;5.142;2023-04-16T02:45:20;102263.09;;;7.66;100.00
67840;BME280;54636;51.684;5.142;2023-04-16T02:47:49;102255.00;;;7.66;100.00
67840;BME280;54636;51.684;5.142;2023-04-16T02:50:15;102262.09;;;7.60;100.00
67840;BME280;54636;51.684;5.142;2023-04-16T02:52:40;102255.59;;;7.57;100.00
67840;BME280;54636;51.684;5.142;2023-04-16T02:55:06;102259.66;;;7.66;100.00
67840;BME280;54636;51.684;5.142;2023-04-16T02:57:32;102264.28;;;7.65;100.00
67840;BME280;54636;51.684;5.142;2023-04-16T02:59:58;102260.16;;;7.60;100.00
67840;BME280;54636;51.684;5.142;2023-04-16T03:02:23;102269.28;;;7.67;100.00
67840;BME280;54636;51.684;5.142;2023-04-16T03:04:48;102269.63;;;7.69;100.00
67840;BME280;54636;51.684;5.142;2023-04-16T03:07:14;102269.63;;;7.69;100.00
67840;BME280;54636;51.684;5.142;2023-04-16T03:09:39;102252.31;;;7.50;100.00
67840;BME280;54636;51.684;5.142;2023-04-16T03:12:05;102263.97;;;7.63;100.00
67840;BME280;54636;51.684;5.142;2023-04-16T03:14:30;102273.50;;;7.68;100.00
67840;BME280;54636;51.684;5.142;2023-04-16T03:16:56;102273.06;;;7.69;100.00
67840;BME280;54636;51.684;5.142;2023-04-16T03:19:22;102271.22;;;7.66;100.00
67840;BME280;54636;51.684;5.142;2023-04-16T03:21:47;102274.34;;;7.65;100.00
67840;BME280;54636;51.684;5.142;2023-04-16T03:24:12;102260.25;;;7.57;100.00
67840;BME280;54636;51.684;5.142;2023-04-16T03:26:38;102273.06;;;7.69;100.00
67840;BME280;54636;51.684;5.142;2023-04-16T03:29:03;102267.41;;;7.64;100.00
67840;BME280;54636;51.684;5.142;2023-04-16T03:31:29;102271.97;;;7.67;100.00
67840;BME280;54636;51.684;5.142;2023-04-16T03:33:55;102276.22;;;7.68;100.00
67840;BME280;54636;51.684;5.142;2023-04-16T03:36:20;102238.19;;;7.42;100.00
67840;BME280;54636;51.684;5.142;2023-04-16T03:38:47;102272.06;;;7.63;100.00
67840;BME280;54636;51.684;5.142;2023-04-16T03:41:12;102273.75;;;7.73;100.00
67840;BME280;54636;51.684;5.142;2023-04-16T03:43:38;102277.63;;;7.72;100.00
67840;BME280;54636;51.684;5.142;2023-04-16T03:46:03;102286.94;;;7.71;100.00
67840;BME280;54636;51.684;5.142;2023-04-16T03:48:29;102276.28;;;7.64;100.00
67840;BME280;54636;51.684;5.142;2023-04-16T03:50:54;102272.81;;;7.64;100.00
67840;BME280;54636;51.684;5.142;2023-04-16T03:53:20;102292.34;;;7.71;100.00
67840;BME280;54636;51.684;5.142;2023-04-16T03:55:49;102290.06;;;7.70;100.00
67840;BME280;54636;51.684;5.142;2023-04-16T03:58:15;102287.69;;;7.72;100.00
67840;BME280;54636;51.684;5.142;2023-04-16T04:00:41;102275.28;;;7.58;100.00
67840;BME280;54636;51.684;5.142;2023-04-16T04:03:07;102290.06;;;7.70;100.00
67840;BME280;54636;51.684;5.142;2023-04-16T04:05:36;102287.03;;;7.68;100.00
67840;BME280;54636;51.684;5.142;2023-04-16T04:08:02;102264.47;;;7.58;100.00
67840;BME280;54636;51.684;5.142;2023-04-16T04:10:27;102251.19;;;7.47;100.00
67840;BME280;54636;51.684;5.142;2023-04-16T04:12:55;102286.59;;;7.69;100.00
67840;BME280;54636;51.684;5.142;2023-04-16T04:15:20;102276.72;;;7.63;100.00
67840;BME280;54636;51.684;5.142;2023-04-16T04:17:46;102243.25;;;7.40;100.00
67840;BME280;54636;51.684;5.142;2023-04-16T04:20:11;102288.97;;;7.67;100.00
67840;BME280;54636;51.684;5.142;2023-04-16T04:22:36;102287.34;;;7.70;100.00
67840;BME280;54636;51.684;5.142;2023-04-16T04:25:02;102284.31;;;7.68;100.00
67840;BME280;54636;51.684;5.142;2023-04-16T04:27:27;102292.78;;;7.70;100.00
67840;BME280;54636;51.684;5.142;2023-04-16T04:29:53;102285.16;;;7.65;100.00
67840;BME280;54636;51.684;5.142;2023-04-16T04:32:18;102290.06;;;7.70;100.00
67840;BME280;54636;51.684;5.142;2023-04-16T04:34:44;102259.66;;;7.49;100.00
67840;BME280;54636;51.684;5.142;2023-04-16T04:37:09;102292.69;;;7.73;100.00
67840;BME280;54636;51.684;5.142;2023-04-16T04:39:34;102292.44;;;7.68;100.00
67840;BME280;54636;51.684;5.142;2023-04-16T04:42:00;102300.03;;;7.73;100.00
67840;BME280;54636;51.684;5.142;2023-04-16T04:44:27;102308.50;;;7.75;100.00
67840;BME280;54636;51.684;5.142;2023-04-16T04:46:52;102301.22;;;7.72;100.00
67840;BME280;54636;51.684;5.142;2023-04-16T04:49:17;102309.75;;;7.70;100.00
67840;BME280;54636;51.684;5.142;2023-04-16T04:51:43;102304.34;;;7.70;100.00
67840;BME280;54636;51.684;5.142;2023-04-16T04:54:08;102292.84;;;7.66;100.00
67840;BME280;54636;51.684;5.142;2023-04-16T04:56:34;102310.84;;;7.73;100.00
67840;BME280;54636;51.684;5.142;2023-04-16T04:58:59;102295.97;;;7.65;100.00
67840;BME280;54636;51.684;5.142;2023-04-16T05:01:25;102312.88;;;7.69;100.00
67840;BME280;54636;51.684;5.142;2023-04-16T05:03:50;102301.56;;;7.74;100.00
67840;BME280;54636;51.684;5.142;2023-04-16T05:06:16;102317.78;;;7.74;100.00
67840;BME280;54636;51.684;5.142;2023-04-16T05:08:41;102310.84;;;7.73;100.00
67840;BME280;54636;51.684;5.142;2023-04-16T05:11:06;102313.13;;;7.74;100.00
67840;BME280;54636;51.684;5.142;2023-04-16T05:13:32;102317.78;;;7.74;100.00
67840;BME280;54636;51.684;5.142;2023-04-16T05:15:57;102310.00;;;7.76;100.00
67840;BME280;54636;51.684;5.142;2023-04-16T05:18:23;102315.41;;;7.76;100.00
67840;BME280;54636;51.684;5.142;2023-04-16T05:20:48;102306.63;;;7.72;100.00
67840;BME280;54636;51.684;5.142;2023-04-16T05:23:13;102312.47;;;7.70;100.00
67840;BME280;54636;51.684;5.142;2023-04-16T05:25:39;102302.50;;;7.67;100.00
67840;BME280;54636;51.684;5.142;2023-04-16T05:28:05;102318.13;;;7.76;100.00
67840;BME280;54636;51.684;5.142;2023-04-16T05:30:30;102322.22;;;7.80;100.00
67840;BME280;54636;51.684;5.142;2023-04-16T05:32:55;102316.34;;;7.69;100.00
67840;BME280;54636;51.684;5.142;2023-04-16T05:35:21;102321.66;;;7.73;100.00
67840;BME280;54636;51.684;5.142;2023-04-16T05:37:46;102334.34;;;7.76;100.00
67840;BME280;54636;51.684;5.142;2023-04-16T05:40:12;102325.06;;;7.77;100.00
67840;BME280;54636;51.684;5.142;2023-04-16T05:42:38;102321.59;;;7.76;100.00
67840;BME280;54636;51.684;5.142;2023-04-16T05:45:04;102308.41;;;7.62;100.00
67840;BME280;54636;51.684;5.142;2023-04-16T05:47:29;102317.44;;;7.72;100.00
67840;BME280;54636;51.684;5.142;2023-04-16T05:49:55;102325.06;;;7.77;100.00
67840;BME280;54636;51.684;5.142;2023-04-16T05:52:20;102330.34;;;7.80;100.00
67840;BME280;54636;51.684;5.142;2023-04-16T05:54:46;102341.94;;;7.81;100.00
67840;BME280;54636;51.684;5.142;2023-04-16T05:57:12;102327.84;;;7.73;100.00
67840;BME280;54636;51.684;5.142;2023-04-16T05:59:38;102338.81;;;7.82;100.00
67840;BME280;54636;51.684;5.142;2023-04-16T06:02:03;102338.47;;;7.80;100.00
67840;BME280;54636;51.684;5.142;2023-04-16T06:04:28;102342.25;;;7.83;100.00
67840;BME280;54636;51.684;5.142;2023-04-16T06:06:55;102349.53;;;7.86;100.00
67840;BME280;54636;51.684;5.142;2023-04-16T06:09:20;102333.94;;;7.77;100.00
67840;BME280;54636;51.684;5.142;2023-04-16T06:11:46;102341.63;;;7.79;100.00
67840;BME280;54636;51.684;5.142;2023-04-16T06:14:11;102340.84;;;7.78;100.00
67840;BME280;54636;51.684;5.142;2023-04-16T06:16:37;102353.97;;;7.80;100.00
67840;BME280;54636;51.684;5.142;2023-04-16T06:19:02;102347.34;;;7.81;100.00
67840;BME280;54636;51.684;5.142;2023-04-16T06:21:28;102358.00;;;7.88;100.00
67840;BME280;54636;51.684;5.142;2023-04-16T06:23:54;102352.56;;;7.88;100.00
67840;BME280;54636;51.684;5.142;2023-04-16T06:26:20;102359.84;;;7.91;100.00
67840;BME280;54636;51.684;5.142;2023-04-16T06:28:45;102351.06;;;7.87;100.00
67840;BME280;54636;51.684;5.142;2023-04-16T06:31:11;102353.59;;;7.94;100.00
67840;BME280;54636;51.684;5.142;2023-04-16T06:33:36;102362.97;;;7.89;100.00
67840;BME280;54636;51.684;5.142;2023-04-16T06:36:01;102364.06;;;7.92;100.00
67840;BME280;54636;51.684;5.142;2023-04-16T06:38:27;102373.81;;;7.89;100.00
67840;BME280;54636;51.684;5.142;2023-04-16T06:40:52;102377.69;;;7.88;100.00
67840;BME280;54636;51.684;5.142;2023-04-16T06:43:18;102373.47;;;7.87;100.00
67840;BME280;54636;51.684;5.142;2023-04-16T06:45:43;102368.06;;;7.87;100.00
67840;BME280;54636;51.684;5.142;2023-04-16T06:48:08;102371.19;;;7.86;100.00
67840;BME280;54636;51.684;5.142;2023-04-16T06:50:34;102381.91;;;7.89;100.00
67840;BME280;54636;51.684;5.142;2023-04-16T06:52:59;102383.44;;;7.90;100.00
67840;BME280;54636;51.684;5.142;2023-04-16T06:55:25;102375.06;;;7.85;100.00
67840;BME280;54636;51.684;5.142;2023-04-16T06:57:50;102396.47;;;7.96;100.00
67840;BME280;54636;51.684;5.142;2023-04-16T07:00:15;102390.28;;;7.95;100.00
67840;BME280;54636;51.684;5.142;2023-04-16T07:02:41;102389.94;;;7.93;100.00
67840;BME280;54636;51.684;5.142;2023-04-16T07:05:06;102384.53;;;7.93;100.00
67840;BME280;54636;51.684;5.142;2023-04-16T07:07:33;102396.38;;;7.99;100.00
67840;BME280;54636;51.684;5.142;2023-04-16T07:09:58;102395.44;;;7.89;100.00
67840;BME280;54636;51.684;5.142;2023-04-16T07:12:24;102409.06;;;8.02;100.00
67840;BME280;54636;51.684;5.142;2023-04-16T07:14:49;102387.41;;;7.86;100.00
67840;BME280;54636;51.684;5.142;2023-04-16T07:17:15;102412.53;;;8.03;100.00
67840;BME280;54636;51.684;5.142;2023-04-16T07:19:40;102367.22;;;7.74;100.00
67840;BME280;54636;51.684;5.142;2023-04-16T07:22:06;102402.53;;;8.00;100.00
67840;BME280;54636;51.684;5.142;2023-04-16T07:24:31;102412.44;;;8.06;100.00
67840;BME280;54636;51.684;5.142;2023-04-16T07:26:56;102412.78;;;8.08;100.00
67840;BME280;54636;51.684;5.142;2023-04-16T07:29:22;102408.88;;;8.09;100.00
67840;BME280;54636;51.684;5.142;2023-04-16T07:31:47;102409.66;;;8.10;100.00
67840;BME280;54636;51.684;5.142;2023-04-16T07:34:13;102414.63;;;8.11;100.00
67840;BME280;54636;51.684;5.142;2023-04-16T07:36:38;102408.38;;;8.14;100.00
67840;BME280;54636;51.684;5.142;2023-04-16T07:39:04;102417.59;;;8.17;100.00
67840;BME280;54636;51.684;5.142;2023-04-16T07:41:32;102424.97;;;8.16;100.00
67840;BME280;54636;51.684;5.142;2023-04-16T07:43:57;102429.59;;;8.16;100.00
67840;BME280;54636;51.684;5.142;2023-04-16T07:46:23;102406.34;;;8.02;100.00
67840;BME280;54636;51.684;5.142;2023-04-16T07:48:48;102425.72;;;8.17;100.00
67840;BME280;54636;51.684;5.142;2023-04-16T07:51:14;102428.09;;;8.15;100.00
67840;BME280;54636;51.684;5.142;2023-04-16T07:53:39;102431.38;;;8.22;100.00
67840;BME280;54636;51.684;5.142;2023-04-16T07:56:06;102433.75;;;8.20;100.00
67840;BME280;54636;51.684;5.142;2023-04-16T07:58:31;102445.50;;;8.30;100.00
67840;BME280;54636;51.684;5.142;2023-04-16T08:00:57;102436.97;;;8.32;100.00
67840;BME280;54636;51.684;5.142;2023-04-16T08:03:23;102439.59;;;8.35;100.00
67840;BME280;54636;51.684;5.142;2023-04-16T08:05:48;102434.00;;;8.26;100.00
67840;BME280;54636;51.684;5.142;2023-04-16T08:08:13;102440.03;;;8.34;100.00
67840;BME280;54636;51.684;5.142;2023-04-16T08:10:39;102450.44;;;8.35;100.00
67840;BME280;54636;51.684;5.142;2023-04-16T08:13:04;102437.38;;;8.30;100.00
67840;BME280;54636;51.684;5.142;2023-04-16T08:15:30;102436.13;;;8.35;100.00
67840;BME280;54636;51.684;5.142;2023-04-16T08:17:55;102452.09;;;8.45;100.00
67840;BME280;54636;51.684;5.142;2023-04-16T08:20:20;102455.13;;;8.47;100.00
67840;BME280;54636;51.684;5.142;2023-04-16T08:22:47;102453.31;;;8.44;100.00
67840;BME280;54636;51.684;5.142;2023-04-16T08:25:13;102464.78;;;8.48;100.00
67840;BME280;54636;51.684;5.142;2023-04-16T08:27:38;102458.06;;;8.40;100.00
67840;BME280;54636;51.684;5.142;2023-04-16T08:30:04;102462.19;;;8.45;100.00
67840;BME280;54636;51.684;5.142;2023-04-16T08:32:30;102467.41;;;8.52;100.00
67840;BME280;54636;51.684;5.142;2023-04-16T08:34:56;102474.69;;;8.55;100.00
67840;BME280;54636;51.684;5.142;2023-04-16T08:37:21;102455.06;;;8.51;100.00
67840;BME280;54636;51.684;5.142;2023-04-16T08:39:47;102468.00;;;8.59;100.00
67840;BME280;54636;51.684;5.142;2023-04-16T08:42:20;102470.69;;;8.59;100.00
67840;BME280;54636;51.684;5.142;2023-04-16T08:44:48;102458.75;;;8.57;100.00
67840;BME280;54636;51.684;5.142;2023-04-16T08:47:15;102456.16;;;8.53;100.00
67840;BME280;54636;51.684;5.142;2023-04-16T08:49:44;102454.53;;;8.56;100.00
67840;BME280;54636;51.684;5.142;2023-04-16T08:52:18;102457.34;;;8.52;100.00
67840;BME280;54636;51.684;5.142;2023-04-16T08:55:13;102482.78;;;8.71;100.00
67840;BME280;54636;51.684;5.142;2023-04-16T09:00:12;102470.50;;;8.67;100.00
67840;BME280;54636;51.684;5.142;2023-04-16T09:02:38;102487.00;;;8.72;100.00
67840;BME280;54636;51.684;5.142;2023-04-16T09:05:04;102482.03;;;8.71;100.00
67840;BME280;54636;51.684;5.142;2023-04-16T09:07:32;102481.84;;;8.78;100.00
67840;BME280;54636;51.684;5.142;2023-04-16T09:09:59;102496.47;;;8.80;100.00
67840;BME280;54636;51.684;5.142;2023-04-16T09:12:25;102486.84;;;8.79;100.00
67840;BME280;54636;51.684;5.142;2023-04-16T09:14:51;102496.31;;;8.87;100.00
67840;BME280;54636;51.684;5.142;2023-04-16T09:17:19;102484.13;;;8.79;100.00
67840;BME280;54636;51.684;5.142;2023-04-16T09:19:45;102492.41;;;8.88;100.00
67840;BME280;54636;51.684;5.142;2023-04-16T09:22:11;102499.59;;;8.95;100.00
67840;BME280;54636;51.684;5.142;2023-04-16T09:24:36;102481.75;;;8.81;100.00
67840;BME280;54636;51.684;5.142;2023-04-16T09:27:03;102495.44;;;8.90;100.00
67840;BME280;54636;51.684;5.142;2023-04-16T09:29:35;102484.88;;;8.80;100.00
67840;BME280;54636;51.684;5.142;2023-04-16T09:32:03;102501.72;;;8.87;100.00
67840;BME280;54636;51.684;5.142;2023-04-16T09:34:31;102510.94;;;8.90;100.00
67840;BME280;54636;51.684;5.142;2023-04-16T09:37:13;102515.50;;;8.93;100.00
67840;BME280;54636;51.684;5.142;2023-04-16T09:39:40;102512.19;;;9.02;100.00
67840;BME280;54636;51.684;5.142;2023-04-16T09:42:06;102505.34;;;8.97;100.00
67840;BME280;54636;51.684;5.142;2023-04-16T09:44:36;102524.38;;;9.10;100.00
67840;BME280;54636;51.684;5.142;2023-04-16T09:47:06;102515.13;;;9.07;100.00
67840;BME280;54636;51.684;5.142;2023-04-16T09:49:40;102529.03;;;9.09;100.00
67840;BME280;54636;51.684;5.142;2023-04-16T09:52:13;102523.03;;;9.02;100.00
67840;BME280;54636;51.684;5.142;2023-04-16T09:54:50;102515.66;;;9.02;100.00
67840;BME280;54636;51.684;5.142;2023-04-16T09:57:20;102523.16;;;9.11;100.00
67840;BME280;54636;51.684;5.142;2023-04-16T09:59:46;102534.13;;;9.20;100.00
67840;BME280;54636;51.684;5.142;2023-04-16T10:02:12;102515.22;;;9.04;100.00
67840;BME280;54636;51.684;5.142;2023-04-16T10:04:50;102533.69;;;9.09;100.00
67840;BME280;54636;51.684;5.142;2023-04-16T10:07:17;102537.03;;;9.13;100.00
67840;BME280;54636;51.684;5.142;2023-04-16T10:09:43;102523.38;;;9.04;100.00
67840;BME280;54636;51.684;5.142;2023-04-16T10:12:08;102537.03;;;9.13;100.00
67840;BME280;54636;51.684;5.142;2023-04-16T10:14:34;102539.13;;;9.21;100.00
67840;BME280;54636;51.684;5.142;2023-04-16T10:17:01;102542.28;;;9.20;100.00
67840;BME280;54636;51.684;5.142;2023-04-16T10:19:27;102537.19;;;9.22;100.00
67840;BME280;54636;51.684;5.142;2023-04-16T10:21:56;102545.31;;;9.22;100.00
67840;BME280;54636;51.684;5.142;2023-04-16T10:24:25;102542.09;;;9.27;100.00
67840;BME280;54636;51.684;5.142;2023-04-16T10:26:51;102541.13;;;9.34;100.00
67840;BME280;54636;51.684;5.142;2023-04-16T10:29:18;102539.84;;;9.38;100.00
67840;BME280;54636;51.684;5.142;2023-04-16T10:31:46;102533.22;;;9.39;100.00
67840;BME280;54636;51.684;5.142;2023-04-16T10:34:12;102530.31;;;9.46;100.00
67840;BME280;54636;51.684;5.142;2023-04-16T10:36:38;102541.44;;;9.65;100.00
67840;BME280;54636;51.684;5.142;2023-04-16T10:39:10;102501.34;;;9.43;100.00
67840;BME280;54636;51.684;5.142;2023-04-16T10:41:37;102550.34;;;9.65;100.00
67840;BME280;54636;51.684;5.142;2023-04-16T10:44:08;102541.97;;;9.60;100.00
67840;BME280;54636;51.684;5.142;2023-04-16T10:46:47;102547.28;;;9.63;100.00
67840;BME280;54636;51.684;5.142;2023-04-16T10:49:25;102540.78;;;9.61;100.00
67840;BME280;54636;51.684;5.142;2023-04-16T10:52:06;102538.06;;;9.61;100.00
67840;BME280;54636;51.684;5.142;2023-04-16T10:54:34;102547.19;;;9.67;100.00
67840;BME280;54636;51.684;5.142;2023-04-16T10:57:05;102558.03;;;9.67;100.00
67840;BME280;54636;51.684;5.142;2023-04-16T10:59:37;102550.00;;;9.63;100.00
67840;BME280;54636;51.684;5.142;2023-04-16T11:02:11;102541.44;;;9.65;100.00
67840;BME280;54636;51.684;5.142;2023-04-16T11:04:39;102545.22;;;9.80;100.00
67840;BME280;54636;51.684;5.142;2023-04-16T11:12:16;102538.94;;;9.70;100.00
67840;BME280;54636;51.684;5.142;2023-04-16T11:14:47;102537.94;;;9.77;100.00
67840;BME280;54636;51.684;5.142;2023-04-16T11:17:13;102551.22;;;9.87;100.00
67840;BME280;54636;51.684;5.142;2023-04-16T11:19:38;102526.25;;;9.67;100.00
67840;BME280;54636;51.684;5.142;2023-04-16T11:22:06;102553.91;;;9.87;100.00
67840;BME280;54636;51.684;5.142;2023-04-16T11:24:32;102532.00;;;9.82;100.00
67840;BME280;54636;51.684;5.142;2023-04-16T11:26:58;102554.16;;;9.93;100.00
67840;BME280;54636;51.684;5.142;2023-04-16T11:29:23;102527.66;;;9.84;100.00
67840;BME280;54636;51.684;5.142;2023-04-16T11:31:53;102552.28;;;9.90;100.00
67840;BME280;54636;51.684;5.142;2023-04-16T11:34:19;102558.06;;;9.92;100.00
67840;BME280;54636;51.684;5.142;2023-04-16T11:36:50;102552.63;;;9.92;100.00
67840;BME280;54636;51.684;5.142;2023-04-16T11:39:16;102552.28;;;9.90;100.00
67840;BME280;54636;51.684;5.142;2023-04-16T11:41:46;102531.00;;;9.88;100.00
67840;BME280;54636;51.684;5.142;2023-04-16T11:44:21;102558.72;;;10.09;100.00
67840;BME280;54636;51.684;5.142;2023-04-16T11:46:47;102553.72;;;9.95;100.00
67840;BME280;54636;51.684;5.142;2023-04-16T11:49:13;102557.63;;;9.94;100.00
67840;BME280;54636;51.684;5.142;2023-04-16T11:51:42;102563.16;;;9.90;100.00
67840;BME280;54636;51.684;5.142;2023-04-16T11:54:08;102547.41;;;9.85;100.00
67840;BME280;54636;51.684;5.142;2023-04-16T11:56:35;102563.59;;;10.01;100.00
67840;BME280;54636;51.684;5.142;2023-04-16T11:59:08;102531.31;;;9.78;100.00
67840;BME280;54636;51.684;5.142;2023-04-16T12:01:35;102569.78;;;10.02;100.00
67840;BME280;54636;51.684;5.142;2023-04-16T12:04:03;102561.31;;;10.00;100.00
67840;BME280;54636;51.684;5.142;2023-04-16T12:06:28;102569.34;;;10.03;100.00
67840;BME280;54636;51.684;5.142;2023-04-16T12:08:54;102571.22;;;10.06;100.00
67840;BME280;54636;51.684;5.142;2023-04-16T12:11:19;102566.97;;;10.18;100.00
67840;BME280;54636;51.684;5.142;2023-04-16T12:14:08;102570.25;;;10.38;100.00
67840;BME280;54636;51.684;5.142;2023-04-16T12:16:34;102569.63;;;10.34;100.00
67840;BME280;54636;51.684;5.142;2023-04-16T12:19:00;102575.81;;;10.35;100.00
67840;BME280;54636;51.684;5.142;2023-04-16T12:21:48;102580.38;;;10.38;100.00
67840;BME280;54636;51.684;5.142;2023-04-16T12:24:16;102586.31;;;10.45;100.00
67840;BME280;54636;51.684;5.142;2023-04-16T12:26:46;102579.03;;;10.42;100.00
67840;BME280;54636;51.684;5.142;2023-04-16T12:29:17;102566.47;;;10.36;100.00
67840;BME280;54636;51.684;5.142;2023-04-16T12:31:43;102592.72;;;10.51;100.00
67840;BME280;54636;51.684;5.142;2023-04-16T12:34:09;102550.81;;;10.40;100.00
67840;BME280;54636;51.684;5.142;2023-04-16T12:36:35;102572.06;;;10.67;100.00
67840;BME280;54636;51.684;5.142;2023-04-16T12:39:00;102582.16;;;10.66;100.00
67840;BME280;54636;51.684;5.142;2023-04-16T12:41:26;102579.34;;;10.57;100.00
67840;BME280;54636;51.684;5.142;2023-04-16T12:43:51;102576.97;;;10.46;100.00
67840;BME280;54636;51.684;5.142;2023-04-16T12:46:17;102577.50;;;10.41;100.00
67840;BME280;54636;51.684;5.142;2023-04-16T12:48:42;102576.53;;;10.48;100.00
67840;BME280;54636;51.684;5.142;2023-04-16T12:51:08;102582.38;;;10.59;100.00
67840;BME280;54636;51.684;5.142;2023-04-16T12:53:33;102582.94;;;10.67;100.00
67840;BME280;54636;51.684;5.142;2023-04-16T12:55:59;102580.84;;;10.71;100.00